Hlavní strana
METAR-TAF:

METAR-TAF

Letiště :

Crossville Memorial Airport (Whitson Field)

Crossville, Tennessee, Spojené státy americké

zeměpisná šířka: 35-57-05N, zeměpisná délka: 085-05-06W, výška: 573 m

Aktuální stav počasí

Zpráva byla vytvořena před 1 hodinou a 5 minutami, v 11:53 UTC
Jihojihozápadní vítr 3 kt
Teplota 10°C
Vlhkost vzduchu 82%
Tlak 1021 hPa
Viditelnost: 16.1 km
Jasno

METAR: KCSV 231153Z AUTO 21003KT 10SM CLR 10/07 A3015 RMK AO2 SLP198 T01000072 10139 20089 53006

Čas: 08:58 (12:58 UTC)

Předpověď počasí

Zpráva byla vytvořena před 1 hodinou a 38 minutami, v 11:20 UTC
Předpověď platná od 23 v 12 UTC do 24 v 12 UTC
Jihojihozápadní vítr 2 kt
Viditelnost: 10 km
Skoro jasno ve výšce 25000 ft
Od 23 v 1500 UTC
Západojihozápadní vítr 9 kt
Viditelnost: 10 km
Polojasno ve výšce 4000 ft
Polojasno ve výšce 15000 ft

TAF: KCSV 231120Z 2312/2412 20002KT P6SM FEW250 FM231500 25009KT P6SM SCT040 SCT150

Stav a předpovědi počasí z více než 4 000 letišť (zprávy METAR a TAF).

Červené a žluté tečky na mapě představují dostupné meteorologické stanice.

Když kurzor umístíte na tečku, zobrazí se název stanice.

Pak kliknutím zobrazíte stav a předpověď počasí.

Chcete-li změnit mapu, kliknutím na zelené tlačítko se znaménkem +mapu přiblížíte, kliknutím na zelené tlačítko se znaménkem – mapu oddálíte a kliknutím na zelené šipky přejdete na sousední mapy.


METAR-TAF: